createdAt,value
2019-02-28T00:00:09.928Z,1.20
2019-02-28T00:01:11.837Z,1.10
2019-02-28T00:02:09.935Z,1.10
2019-02-28T00:03:09.938Z,1.00
2019-02-28T00:04:09.941Z,1.10
2019-02-28T00:05:09.946Z,1.10
2019-02-28T00:06:12.606Z,1.10
2019-02-28T00:07:09.950Z,1.10
2019-02-28T00:08:09.952Z,1.20
2019-02-28T00:09:09.955Z,1.30
2019-02-28T00:10:09.982Z,1.20
2019-02-28T00:11:09.962Z,1.20
2019-02-28T00:12:10.227Z,1.30
2019-02-28T00:13:09.967Z,1.10
2019-02-28T00:14:09.975Z,1.30
2019-02-28T00:15:09.973Z,1.10
2019-02-28T00:16:09.990Z,1.30
2019-02-28T00:17:09.995Z,1.30
2019-02-28T00:18:09.983Z,1.20
2019-02-28T00:19:09.985Z,1.10
2019-02-28T00:20:09.987Z,1.20
2019-02-28T00:21:09.990Z,1.10
2019-02-28T00:22:11.335Z,1.30
2019-02-28T00:23:09.997Z,1.00
2019-02-28T00:24:10.034Z,1.20
2019-02-28T00:25:10.002Z,1.10
2019-02-28T00:26:11.636Z,1.00
2019-02-28T00:27:10.010Z,1.00
2019-02-28T00:28:10.011Z,1.20
2019-02-28T00:29:10.015Z,1.20
2019-02-28T00:30:10.018Z,1.10
2019-02-28T00:31:14.191Z,1.10
2019-02-28T00:32:10.022Z,1.10
2019-02-28T00:33:10.026Z,1.20
2019-02-28T00:34:10.029Z,1.20
2019-02-28T00:35:12.965Z,1.20
2019-02-28T00:36:10.034Z,1.00
2019-02-28T00:37:10.037Z,1.00
2019-02-28T00:38:10.042Z,1.00
2019-02-28T00:39:10.046Z,1.30
2019-02-28T00:40:10.046Z,1.10
2019-02-28T00:41:10.296Z,1.10
2019-02-28T00:42:10.052Z,1.20
2019-02-28T00:43:10.056Z,1.10
2019-02-28T00:44:10.081Z,1.20
2019-02-28T00:45:10.059Z,1.20
2019-02-28T00:46:11.012Z,1.30
2019-02-28T00:47:10.068Z,1.20
2019-02-28T00:48:10.070Z,1.00
2019-02-28T00:49:10.074Z,1.10
2019-02-28T00:50:10.077Z,1.00
2019-02-28T00:51:10.091Z,1.40
2019-02-28T00:52:10.081Z,1.30
2019-02-28T00:53:10.085Z,1.20
2019-02-28T00:54:10.087Z,1.10
2019-02-28T00:55:10.090Z,1.40
2019-02-28T00:56:10.092Z,1.40
2019-02-28T00:57:10.095Z,1.30
2019-02-28T00:58:10.099Z,1.20
2019-02-28T00:59:10.102Z,1.20
2019-02-28T01:00:10.130Z,1.30
2019-02-28T01:01:11.585Z,1.10
2019-02-28T01:02:10.118Z,1.10
2019-02-28T01:03:10.118Z,1.20
2019-02-28T01:04:10.114Z,1.20
2019-02-28T01:05:10.120Z,1.20
2019-02-28T01:06:10.677Z,1.20
2019-02-28T01:07:10.125Z,1.20
2019-02-28T01:08:10.129Z,1.10
2019-02-28T01:09:10.139Z,1.20
2019-02-28T01:10:10.133Z,1.20
2019-02-28T01:11:10.371Z,1.20
2019-02-28T01:12:10.141Z,1.10
2019-02-28T01:13:10.141Z,1.30
2019-02-28T01:14:10.146Z,1.40
2019-02-28T01:15:10.766Z,1.30
2019-02-28T01:16:10.148Z,1.20
2019-02-28T01:17:10.153Z,1.30
2019-02-28T01:18:10.157Z,1.20
2019-02-28T01:19:10.330Z,1.30
2019-02-28T01:20:15.037Z,1.40
2019-02-28T01:21:10.166Z,1.30
2019-02-28T01:22:10.170Z,1.40
2019-02-28T01:23:10.171Z,1.50
2019-02-28T01:24:10.174Z,1.30
2019-02-28T01:25:10.179Z,1.60
2019-02-28T01:26:11.703Z,1.40
2019-02-28T01:27:10.183Z,1.20
2019-02-28T01:28:10.186Z,1.20
2019-02-28T01:29:10.189Z,1.30
2019-02-28T01:30:10.191Z,1.30
2019-02-28T01:31:11.639Z,1.30
2019-02-28T01:32:10.198Z,1.30
2019-02-28T01:33:10.200Z,1.20
2019-02-28T01:34:10.253Z,1.30
2019-02-28T01:35:10.206Z,1.50
2019-02-28T01:36:12.286Z,1.40
2019-02-28T01:37:10.211Z,1.30
2019-02-28T01:38:10.215Z,1.10
2019-02-28T01:39:10.220Z,1.50
2019-02-28T01:40:10.220Z,1.50
2019-02-28T01:41:11.167Z,1.40
2019-02-28T01:42:10.227Z,1.40
2019-02-28T01:43:10.228Z,1.20
2019-02-28T01:44:10.231Z,1.50
2019-02-28T01:45:11.023Z,1.50
2019-02-28T01:46:10.237Z,1.30
2019-02-28T01:47:10.243Z,1.30
2019-02-28T01:48:10.243Z,1.30
2019-02-28T01:49:10.250Z,1.50
2019-02-28T01:50:10.250Z,1.50
2019-02-28T01:51:10.252Z,1.30
2019-02-28T01:52:10.795Z,1.40
2019-02-28T01:53:10.260Z,1.30
2019-02-28T01:54:10.261Z,1.40
2019-02-28T01:55:10.266Z,1.20
2019-02-28T01:56:10.266Z,1.30
2019-02-28T01:57:10.271Z,1.30
2019-02-28T01:58:10.272Z,1.50
2019-02-28T01:59:10.276Z,1.30
2019-02-28T02:00:10.278Z,1.20
2019-02-28T02:01:10.283Z,1.30
2019-02-28T02:02:10.284Z,1.30
2019-02-28T02:03:10.288Z,1.30
2019-02-28T02:04:12.598Z,1.30
2019-02-28T02:05:10.292Z,1.30
2019-02-28T02:06:10.294Z,1.40
2019-02-28T02:07:10.297Z,1.30
2019-02-28T02:08:10.302Z,1.40
2019-02-28T02:09:10.973Z,1.30
2019-02-28T02:10:10.308Z,1.30
2019-02-28T02:11:10.317Z,1.50
2019-02-28T02:12:10.312Z,1.20
2019-02-28T02:13:10.316Z,1.40
2019-02-28T02:14:11.036Z,1.30
2019-02-28T02:15:10.323Z,1.20
2019-02-28T02:16:10.324Z,1.30
2019-02-28T02:17:10.327Z,1.40
2019-02-28T02:18:10.331Z,1.30
2019-02-28T02:19:10.333Z,1.30
2019-02-28T02:20:10.337Z,1.30
2019-02-28T02:21:10.344Z,1.20
2019-02-28T02:22:10.347Z,1.20
2019-02-28T02:23:10.346Z,1.30
2019-02-28T02:24:10.348Z,1.30
2019-02-28T02:25:10.353Z,1.40
2019-02-28T02:26:11.289Z,1.00
2019-02-28T02:27:10.357Z,1.20
2019-02-28T02:28:10.358Z,1.40
2019-02-28T02:29:10.361Z,1.30
2019-02-28T02:30:15.233Z,1.40
2019-02-28T02:31:10.368Z,1.20
2019-02-28T02:32:10.370Z,1.20
2019-02-28T02:33:14.664Z,1.40
2019-02-28T02:34:10.376Z,1.30
2019-02-28T02:35:10.380Z,1.40
2019-02-28T02:36:10.384Z,1.30
2019-02-28T02:37:10.386Z,1.40
2019-02-28T02:38:10.388Z,1.40
2019-02-28T02:39:15.982Z,1.40
2019-02-28T02:40:10.393Z,1.30
2019-02-28T02:41:10.406Z,1.30
2019-02-28T02:42:11.533Z,1.30
2019-02-28T02:43:10.412Z,1.20
2019-02-28T02:44:10.455Z,1.30
2019-02-28T02:45:10.409Z,1.40
2019-02-28T02:46:10.429Z,1.60
2019-02-28T02:47:10.416Z,1.10
2019-02-28T02:48:10.419Z,1.30
2019-02-28T02:49:10.425Z,1.20
2019-02-28T02:50:10.427Z,1.30
2019-02-28T02:51:12.292Z,1.30
2019-02-28T02:52:10.428Z,1.40
2019-02-28T02:53:10.431Z,1.40
2019-02-28T02:54:10.439Z,1.10
2019-02-28T02:55:10.439Z,1.10
2019-02-28T02:56:10.440Z,1.40
2019-02-28T02:57:14.009Z,1.30
2019-02-28T02:58:10.458Z,1.30
2019-02-28T02:59:10.448Z,1.30
2019-02-28T03:00:13.727Z,1.10
2019-02-28T03:01:10.455Z,1.40
2019-02-28T03:02:10.458Z,1.30
2019-02-28T03:03:10.461Z,1.40
2019-02-28T03:04:10.477Z,1.30
2019-02-28T03:05:10.470Z,1.30
2019-02-28T03:06:13.580Z,1.30
2019-02-28T03:07:10.475Z,1.40
2019-02-28T03:08:10.474Z,1.30
2019-02-28T03:09:11.187Z,1.10
2019-02-28T03:10:10.491Z,1.30
2019-02-28T03:11:10.482Z,1.10
2019-02-28T03:12:10.489Z,1.10
2019-02-28T03:13:10.488Z,1.30
2019-02-28T03:14:10.490Z,1.30
2019-02-28T03:15:10.497Z,1.20
2019-02-28T03:16:10.506Z,1.30
2019-02-28T03:17:12.090Z,1.30
2019-02-28T03:18:10.506Z,1.30
2019-02-28T03:19:10.507Z,1.30
2019-02-28T03:20:10.513Z,1.30
2019-02-28T03:21:15.133Z,1.40
2019-02-28T03:22:10.519Z,1.30
2019-02-28T03:23:10.518Z,1.30
2019-02-28T03:24:14.819Z,1.20
2019-02-28T03:25:10.524Z,1.30
2019-02-28T03:26:10.527Z,1.20
2019-02-28T03:27:10.530Z,1.20
2019-02-28T03:28:10.533Z,1.30
2019-02-28T03:29:10.536Z,1.20
2019-02-28T03:30:10.539Z,1.20
2019-02-28T03:31:14.453Z,1.10
2019-02-28T03:32:10.543Z,1.30
2019-02-28T03:33:23.770Z,1.50
2019-02-28T03:34:13.750Z,1.40
2019-02-28T03:35:10.559Z,1.10
2019-02-28T03:36:10.565Z,1.00
2019-02-28T03:37:10.561Z,1.30
2019-02-28T03:38:12.447Z,1.10
2019-02-28T03:39:10.565Z,1.30
2019-02-28T03:40:10.565Z,1.40
2019-02-28T03:41:16.088Z,1.10
2019-02-28T03:42:10.574Z,1.20
2019-02-28T03:43:10.582Z,1.10
2019-02-28T03:44:10.585Z,1.00
2019-02-28T03:45:10.587Z,1.20
2019-02-28T03:46:11.611Z,1.20
2019-02-28T03:47:10.607Z,1.50
2019-02-28T03:48:10.603Z,1.30
2019-02-28T03:49:11.533Z,1.20
2019-02-28T03:50:10.596Z,1.40
2019-02-28T03:51:10.599Z,1.10
2019-02-28T03:52:10.600Z,1.00
2019-02-28T03:53:10.604Z,1.30
2019-02-28T03:54:10.606Z,1.30
2019-02-28T03:55:10.618Z,1.40
2019-02-28T03:56:14.389Z,1.50
2019-02-28T03:57:10.612Z,1.50
2019-02-28T03:58:10.618Z,1.10
2019-02-28T03:59:18.236Z,1.40
2019-02-28T04:00:10.622Z,1.30
2019-02-28T04:01:10.661Z,1.20
2019-02-28T04:02:10.630Z,1.10
2019-02-28T04:03:10.631Z,1.30
2019-02-28T04:04:12.303Z,1.10
2019-02-28T04:05:10.663Z,1.40
2019-02-28T04:06:10.666Z,1.20
2019-02-28T04:07:15.354Z,1.20
2019-02-28T04:08:10.658Z,1.30
2019-02-28T04:09:10.648Z,1.20
2019-02-28T04:10:10.656Z,1.20
2019-02-28T04:11:10.662Z,1.30
2019-02-28T04:12:10.662Z,1.30
2019-02-28T04:13:10.678Z,1.50
2019-02-28T04:14:10.663Z,1.30
2019-02-28T04:15:11.356Z,1.40
2019-02-28T04:16:10.669Z,1.20
2019-02-28T04:17:10.672Z,1.30
2019-02-28T04:18:10.678Z,1.20
2019-02-28T04:19:10.678Z,1.20
2019-02-28T04:20:10.682Z,1.20
2019-02-28T04:21:12.190Z,1.50
2019-02-28T04:22:10.695Z,1.20
2019-02-28T04:23:10.689Z,1.30
2019-02-28T04:24:13.819Z,1.40
2019-02-28T04:25:10.694Z,1.30
2019-02-28T04:26:10.695Z,1.20
2019-02-28T04:27:10.705Z,1.30
2019-02-28T04:28:17.321Z,1.30
2019-02-28T04:29:10.705Z,1.20
2019-02-28T04:30:10.709Z,1.20
2019-02-28T04:31:10.723Z,1.20
2019-02-28T04:32:10.714Z,1.10
2019-02-28T04:33:10.715Z,1.00
2019-02-28T04:34:13.470Z,1.40
2019-02-28T04:35:10.723Z,1.20
2019-02-28T04:36:10.726Z,1.20
2019-02-28T04:37:10.731Z,1.10
2019-02-28T04:38:10.743Z,1.20
2019-02-28T04:39:10.735Z,1.40
2019-02-28T04:40:10.736Z,1.30
2019-02-28T04:41:10.738Z,1.30
2019-02-28T04:42:10.742Z,1.20
2019-02-28T04:43:10.885Z,1.20
2019-02-28T04:44:10.752Z,1.50
2019-02-28T04:45:10.752Z,1.10
2019-02-28T04:46:10.754Z,1.30
2019-02-28T04:47:10.758Z,1.30
2019-02-28T04:48:13.625Z,1.30
2019-02-28T04:49:10.761Z,1.20
2019-02-28T04:50:10.765Z,1.00
2019-02-28T04:51:10.768Z,1.10
2019-02-28T04:52:11.807Z,1.60
2019-02-28T04:53:10.772Z,1.20
2019-02-28T04:54:10.776Z,1.20
2019-02-28T04:55:10.786Z,1.30
2019-02-28T04:56:11.438Z,1.20
2019-02-28T04:57:10.786Z,1.20
2019-02-28T04:58:10.788Z,1.10
2019-02-28T04:59:10.791Z,1.40
2019-02-28T05:00:10.802Z,1.20
2019-02-28T05:01:12.284Z,1.10
2019-02-28T05:02:10.800Z,1.10
2019-02-28T05:03:10.808Z,1.30
2019-02-28T05:04:10.854Z,1.40
2019-02-28T05:05:12.594Z,1.10
2019-02-28T05:06:10.810Z,1.20
2019-02-28T05:07:10.814Z,1.00
2019-02-28T05:08:10.815Z,1.00
2019-02-28T05:09:14.494Z,1.10
2019-02-28T05:10:10.829Z,1.10
2019-02-28T05:11:10.825Z,1.20
2019-02-28T05:12:10.827Z,1.20
2019-02-28T05:13:11.444Z,1.10
2019-02-28T05:14:10.833Z,1.20
2019-02-28T05:15:10.841Z,1.30
2019-02-28T05:16:12.371Z,1.00
2019-02-28T05:17:10.848Z,1.10
2019-02-28T05:18:10.845Z,1.20
2019-02-28T05:19:10.848Z,1.10
2019-02-28T05:20:12.025Z,1.10
2019-02-28T05:21:10.853Z,1.20
2019-02-28T05:22:10.872Z,1.10
2019-02-28T05:23:10.859Z,1.10
2019-02-28T05:24:10.861Z,1.30
2019-02-28T05:25:10.865Z,1.20
2019-02-28T05:26:10.867Z,1.10
2019-02-28T05:27:10.871Z,1.20
2019-02-28T05:28:10.873Z,1.20
2019-02-28T05:29:11.927Z,1.10
2019-02-28T05:30:10.880Z,1.00
2019-02-28T05:31:10.880Z,1.20
2019-02-28T05:32:10.888Z,1.00
2019-02-28T05:33:10.887Z,1.10
2019-02-28T05:34:13.272Z,1.00
2019-02-28T05:35:10.894Z,1.20
2019-02-28T05:36:10.894Z,1.00
2019-02-28T05:37:12.460Z,1.10
2019-02-28T05:38:10.902Z,0.90
2019-02-28T05:39:10.913Z,1.10
2019-02-28T05:40:10.918Z,1.20
2019-02-28T05:41:12.190Z,1.00
2019-02-28T05:42:10.914Z,1.00
2019-02-28T05:43:10.919Z,1.00
2019-02-28T05:44:10.919Z,1.20
2019-02-28T05:45:11.319Z,1.10
2019-02-28T05:46:10.925Z,0.90
2019-02-28T05:47:10.937Z,1.00
2019-02-28T05:48:10.938Z,1.10
2019-02-28T05:49:10.936Z,0.90
2019-02-28T05:50:15.463Z,1.00
2019-02-28T05:51:10.940Z,1.00
2019-02-28T05:52:10.944Z,1.10
2019-02-28T05:53:10.946Z,0.90
2019-02-28T05:54:15.918Z,1.20
2019-02-28T05:55:10.956Z,1.10
2019-02-28T05:56:10.954Z,0.90
2019-02-28T05:57:10.958Z,1.00
2019-02-28T05:58:10.961Z,1.10
2019-02-28T05:59:10.964Z,1.10
2019-02-28T06:00:10.968Z,1.00
2019-02-28T06:01:11.919Z,1.10
2019-02-28T06:02:10.973Z,0.90
2019-02-28T06:03:10.976Z,0.90
2019-02-28T06:04:11.028Z,0.90
2019-02-28T06:05:11.841Z,1.00
2019-02-28T06:06:10.992Z,0.90
2019-02-28T06:07:10.991Z,1.00
2019-02-28T06:08:10.990Z,0.80
2019-02-28T06:09:13.657Z,0.80
2019-02-28T06:10:10.998Z,1.10
2019-02-28T06:11:10.999Z,0.80
2019-02-28T06:12:11.010Z,1.00
2019-02-28T06:13:11.012Z,0.90
2019-02-28T06:14:11.013Z,1.20
2019-02-28T06:15:11.014Z,0.90
2019-02-28T06:16:12.401Z,0.90
2019-02-28T06:17:11.017Z,0.80
2019-02-28T06:18:11.021Z,0.90
2019-02-28T06:19:11.029Z,0.80
2019-02-28T06:20:11.025Z,0.90
2019-02-28T06:21:11.027Z,1.00
2019-02-28T06:22:11.032Z,1.00
2019-02-28T06:23:11.037Z,1.20
2019-02-28T06:24:12.766Z,0.90
2019-02-28T06:25:11.066Z,0.90
2019-02-28T06:26:11.049Z,1.00
2019-02-28T06:27:11.048Z,1.00
2019-02-28T06:28:12.058Z,1.10
2019-02-28T06:29:11.053Z,1.00
2019-02-28T06:30:11.056Z,0.80
2019-02-28T06:31:14.242Z,0.90
2019-02-28T06:32:13.478Z,0.90
2019-02-28T06:33:11.067Z,1.00
2019-02-28T06:34:11.122Z,0.90
2019-02-28T06:35:16.150Z,1.00
2019-02-28T06:36:11.073Z,1.00
2019-02-28T06:37:11.077Z,1.10
2019-02-28T06:38:11.080Z,1.10
2019-02-28T06:39:11.105Z,0.90
2019-02-28T06:40:11.091Z,1.00
2019-02-28T06:41:11.091Z,0.90
2019-02-28T06:42:11.829Z,1.10
2019-02-28T06:43:11.095Z,0.90
2019-02-28T06:44:11.099Z,1.10
2019-02-28T06:45:11.100Z,0.90
2019-02-28T06:46:11.104Z,1.00
2019-02-28T06:47:11.345Z,1.00
2019-02-28T06:48:11.110Z,1.10
2019-02-28T06:49:11.115Z,0.90
2019-02-28T06:50:12.997Z,0.90
2019-02-28T06:51:11.119Z,1.00
2019-02-28T06:52:11.122Z,1.10
2019-02-28T06:53:11.150Z,0.90
2019-02-28T06:54:11.128Z,0.90
2019-02-28T06:55:12.632Z,0.90
2019-02-28T06:56:11.134Z,0.90
2019-02-28T06:57:11.138Z,0.90
2019-02-28T06:58:11.141Z,0.80
2019-02-28T06:59:11.194Z,0.90
2019-02-28T07:00:13.502Z,0.70
2019-02-28T07:01:11.151Z,0.90
2019-02-28T07:02:11.203Z,0.80
2019-02-28T07:03:11.159Z,0.60
2019-02-28T07:04:11.454Z,0.90
2019-02-28T07:05:11.171Z,0.80
2019-02-28T07:06:11.176Z,0.80
2019-02-28T07:07:13.593Z,0.90
2019-02-28T07:08:11.174Z,0.80
2019-02-28T07:09:11.225Z,0.80
2019-02-28T07:10:12.675Z,0.70
2019-02-28T07:11:11.182Z,0.80
2019-02-28T07:12:13.216Z,0.70
2019-02-28T07:13:11.909Z,0.80
2019-02-28T07:14:13.831Z,0.80
2019-02-28T07:15:11.194Z,0.80
2019-02-28T07:16:11.197Z,0.80
2019-02-28T07:17:11.572Z,1.10
2019-02-28T07:18:11.212Z,0.70
2019-02-28T07:19:11.209Z,0.80
2019-02-28T07:20:11.211Z,0.80
2019-02-28T07:21:11.213Z,0.80
2019-02-28T07:22:11.217Z,0.80
2019-02-28T07:23:11.220Z,0.70
2019-02-28T07:24:11.222Z,0.70
2019-02-28T07:25:12.792Z,0.80
2019-02-28T07:26:11.234Z,0.80
2019-02-28T07:27:11.233Z,0.90
2019-02-28T07:28:11.234Z,0.80
2019-02-28T07:29:12.081Z,0.70
2019-02-28T07:30:14.334Z,0.70
2019-02-28T07:31:11.297Z,0.70
2019-02-28T07:32:11.250Z,0.70
2019-02-28T07:33:11.318Z,0.60
2019-02-28T07:34:11.254Z,0.70
2019-02-28T07:35:11.262Z,0.70
2019-02-28T07:36:11.264Z,0.80
2019-02-28T07:37:11.264Z,0.70
2019-02-28T07:38:11.321Z,0.80
2019-02-28T07:39:11.273Z,0.80
2019-02-28T07:40:15.513Z,0.80
2019-02-28T07:41:11.330Z,0.80
2019-02-28T07:42:11.281Z,0.80
2019-02-28T07:43:13.048Z,0.70
2019-02-28T07:44:11.285Z,0.70
2019-02-28T07:45:12.155Z,0.80
2019-02-28T07:46:11.291Z,0.80
2019-02-28T07:47:11.296Z,0.80
2019-02-28T07:48:11.300Z,0.90
2019-02-28T07:49:11.301Z,0.60
2019-02-28T07:50:11.575Z,0.80
2019-02-28T07:51:11.367Z,0.70
2019-02-28T07:52:11.312Z,0.80
2019-02-28T07:53:11.319Z,0.80
2019-02-28T07:54:12.679Z,0.90
2019-02-28T07:55:11.323Z,0.80
2019-02-28T07:56:11.324Z,0.70
2019-02-28T07:57:11.330Z,0.80
2019-02-28T07:58:11.334Z,1.00
2019-02-28T07:59:11.438Z,0.80
2019-02-28T08:00:17.169Z,0.90
2019-02-28T08:01:11.342Z,0.90
2019-02-28T08:02:11.346Z,0.70
2019-02-28T08:03:12.047Z,0.80
2019-02-28T08:04:11.351Z,1.00
2019-02-28T08:05:11.354Z,0.90
2019-02-28T08:06:11.359Z,0.80
2019-02-28T08:07:14.565Z,0.80
2019-02-28T08:08:11.363Z,0.70
2019-02-28T08:09:11.370Z,0.70
2019-02-28T08:10:12.828Z,0.60
2019-02-28T08:11:11.374Z,0.80
2019-02-28T08:12:12.191Z,0.80
2019-02-28T08:13:11.381Z,0.80
2019-02-28T08:14:12.165Z,0.90
2019-02-28T08:15:11.387Z,0.80
2019-02-28T08:16:11.446Z,0.80
2019-02-28T08:17:11.396Z,0.80
2019-02-28T08:18:11.407Z,0.70
2019-02-28T08:19:11.401Z,0.90
2019-02-28T08:20:11.430Z,0.80
2019-02-28T08:21:11.427Z,0.90
2019-02-28T08:22:11.413Z,0.70
2019-02-28T08:23:12.745Z,0.70
2019-02-28T08:24:11.425Z,0.70
2019-02-28T08:25:11.421Z,0.80
2019-02-28T08:26:11.435Z,0.80
2019-02-28T08:27:11.428Z,0.80
2019-02-28T08:28:11.482Z,0.90
2019-02-28T08:29:11.725Z,0.90
2019-02-28T08:30:11.434Z,0.90
2019-02-28T08:31:11.442Z,0.90
2019-02-28T08:32:11.444Z,0.80
2019-02-28T08:33:11.453Z,0.80
2019-02-28T08:34:11.454Z,0.90
2019-02-28T08:35:11.456Z,0.70
2019-02-28T08:36:12.682Z,0.90
2019-02-28T08:37:11.493Z,0.80
2019-02-28T08:38:11.512Z,0.70
2019-02-28T08:39:12.032Z,0.80
2019-02-28T08:40:12.587Z,0.80
2019-02-28T08:41:11.475Z,0.70
2019-02-28T08:42:11.488Z,0.80
2019-02-28T08:43:13.581Z,0.80
2019-02-28T08:44:11.483Z,0.80
2019-02-28T08:45:11.486Z,0.80
2019-02-28T08:46:13.716Z,0.80
2019-02-28T08:47:11.494Z,0.80
2019-02-28T08:48:12.771Z,0.90
2019-02-28T08:49:11.501Z,0.80
2019-02-28T08:50:11.503Z,0.80
2019-02-28T08:51:11.509Z,0.80
2019-02-28T08:52:11.507Z,0.80
2019-02-28T08:53:12.471Z,0.80
2019-02-28T08:54:11.519Z,0.80
2019-02-28T08:55:11.523Z,0.90
2019-02-28T08:56:14.049Z,1.00
2019-02-28T08:57:12.945Z,0.90
2019-02-28T08:58:11.533Z,0.80
2019-02-28T08:59:12.189Z,0.90
2019-02-28T09:00:11.537Z,0.80
2019-02-28T09:01:11.542Z,0.90
2019-02-28T09:02:14.565Z,0.90
2019-02-28T09:03:11.549Z,0.90
2019-02-28T09:04:11.551Z,1.20
2019-02-28T09:05:11.553Z,0.90
2019-02-28T09:06:11.557Z,1.10
2019-02-28T09:07:14.999Z,0.70
2019-02-28T09:08:11.570Z,0.90
2019-02-28T09:09:11.670Z,1.00
2019-02-28T09:10:12.675Z,0.90
2019-02-28T09:11:11.626Z,0.80
2019-02-28T09:12:11.579Z,1.00
2019-02-28T09:13:11.580Z,0.90
2019-02-28T09:14:11.694Z,0.90
2019-02-28T09:15:11.595Z,0.90
2019-02-28T09:16:11.642Z,0.80
2019-02-28T09:17:11.618Z,0.60
2019-02-28T09:18:11.598Z,0.90
2019-02-28T09:19:11.662Z,1.00
2019-02-28T09:20:11.671Z,0.90
2019-02-28T09:21:11.610Z,0.80
2019-02-28T09:22:11.612Z,0.80
2019-02-28T09:23:11.618Z,0.90
2019-02-28T09:24:12.654Z,0.90
2019-02-28T09:25:11.672Z,0.80
2019-02-28T09:26:11.630Z,0.90
2019-02-28T09:27:12.295Z,0.80
2019-02-28T09:28:13.027Z,0.80
2019-02-28T09:29:11.637Z,0.80
2019-02-28T09:30:11.695Z,0.90
2019-02-28T09:31:11.643Z,0.90
2019-02-28T09:32:13.530Z,1.00
2019-02-28T09:33:11.651Z,0.70
2019-02-28T09:34:11.656Z,0.70
2019-02-28T09:35:14.328Z,0.80
2019-02-28T09:36:11.662Z,0.80
2019-02-28T09:37:11.681Z,0.80
2019-02-28T09:38:13.561Z,1.10
2019-02-28T09:39:11.678Z,0.90
2019-02-28T09:40:11.779Z,0.70
2019-02-28T09:41:11.681Z,0.80
2019-02-28T09:42:14.751Z,0.90
2019-02-28T09:43:11.690Z,0.90
2019-02-28T09:44:11.841Z,0.70
2019-02-28T09:45:11.750Z,0.70
2019-02-28T09:46:12.518Z,0.70
2019-02-28T09:47:11.851Z,0.80
2019-02-28T09:48:11.706Z,1.00
2019-02-28T09:49:12.959Z,0.90
2019-02-28T09:50:11.714Z,0.70
2019-02-28T09:51:11.715Z,0.80
2019-02-28T09:52:11.720Z,1.00
2019-02-28T09:53:15.551Z,0.70
2019-02-28T09:54:11.777Z,0.90
2019-02-28T09:55:11.733Z,0.80
2019-02-28T09:56:11.733Z,0.80
2019-02-28T09:57:11.746Z,0.80
2019-02-28T09:58:11.745Z,0.70
2019-02-28T09:59:11.747Z,0.90
2019-02-28T10:00:12.706Z,0.90
2019-02-28T10:01:11.751Z,0.80
2019-02-28T10:02:11.768Z,1.00
2019-02-28T10:03:11.760Z,0.90
2019-02-28T10:04:11.760Z,1.20
2019-02-28T10:05:11.936Z,1.10
2019-02-28T10:06:13.438Z,1.20
2019-02-28T10:07:11.773Z,1.40
2019-02-28T10:08:11.833Z,1.10
2019-02-28T10:09:11.780Z,1.20
2019-02-28T10:10:13.744Z,1.40
2019-02-28T10:11:11.837Z,1.00
2019-02-28T10:12:11.790Z,1.40
2019-02-28T10:13:14.477Z,1.40
2019-02-28T10:14:12.270Z,1.40
2019-02-28T10:15:11.806Z,1.30
2019-02-28T10:16:13.569Z,1.30
2019-02-28T10:17:11.815Z,1.20
2019-02-28T10:18:11.812Z,1.10
2019-02-28T10:19:13.456Z,1.40
2019-02-28T10:20:11.817Z,1.20
2019-02-28T10:21:11.877Z,1.40
2019-02-28T10:22:12.910Z,1.30
2019-02-28T10:23:11.830Z,1.30
2019-02-28T10:24:11.883Z,1.40
2019-02-28T10:25:11.838Z,1.20
2019-02-28T10:26:14.325Z,1.30
2019-02-28T10:27:11.844Z,1.50
2019-02-28T10:28:11.850Z,1.40
2019-02-28T10:29:11.850Z,1.40
2019-02-28T10:30:15.636Z,1.10
2019-02-28T10:31:11.859Z,1.20
2019-02-28T10:32:11.862Z,1.40
2019-02-28T10:33:14.300Z,1.40
2019-02-28T10:34:11.877Z,1.20
2019-02-28T10:35:11.872Z,1.20
2019-02-28T10:36:13.015Z,1.30
2019-02-28T10:37:11.877Z,1.30
2019-02-28T10:38:11.880Z,1.30
2019-02-28T10:39:11.887Z,1.30
2019-02-28T10:40:14.251Z,1.40
2019-02-28T10:41:11.891Z,1.50
2019-02-28T10:42:11.900Z,1.30
2019-02-28T10:43:12.091Z,1.40
2019-02-28T10:44:11.901Z,1.40
2019-02-28T10:45:11.905Z,1.50
2019-02-28T10:46:13.370Z,1.60
2019-02-28T10:47:11.933Z,1.30
2019-02-28T10:48:11.917Z,1.30
2019-02-28T10:49:11.970Z,1.50
2019-02-28T10:50:11.924Z,1.30
2019-02-28T10:51:13.959Z,1.70
2019-02-28T10:52:11.929Z,1.60
2019-02-28T10:53:11.933Z,1.30
2019-02-28T10:54:14.558Z,1.30
2019-02-28T10:55:11.944Z,1.30
2019-02-28T10:56:11.993Z,1.30
2019-02-28T10:57:11.945Z,1.20
2019-02-28T10:58:12.484Z,1.10
2019-02-28T10:59:11.954Z,1.20
2019-02-28T11:00:11.958Z,1.20
2019-02-28T11:01:11.960Z,1.30
2019-02-28T11:02:13.509Z,1.10
2019-02-28T11:03:12.004Z,1.40
2019-02-28T11:04:11.972Z,1.30
2019-02-28T11:05:12.026Z,1.20
2019-02-28T11:06:11.977Z,1.30
2019-02-28T11:07:11.989Z,1.10
2019-02-28T11:08:12.804Z,1.30
2019-02-28T11:09:11.987Z,1.10
2019-02-28T11:10:11.993Z,1.50
2019-02-28T11:11:11.996Z,1.40
2019-02-28T11:12:11.997Z,1.30
2019-02-28T11:13:12.000Z,1.20
2019-02-28T11:14:12.007Z,1.30
2019-02-28T11:15:13.925Z,1.30
2019-02-28T11:16:12.011Z,1.40
2019-02-28T11:17:13.831Z,1.00
2019-02-28T11:18:12.020Z,1.30
2019-02-28T11:19:14.176Z,1.30
2019-02-28T11:20:21.813Z,1.30
2019-02-28T11:21:12.078Z,1.30
2019-02-28T11:22:12.083Z,1.30
2019-02-28T11:23:14.938Z,1.30
2019-02-28T11:24:12.039Z,1.20
2019-02-28T11:25:12.047Z,1.50
2019-02-28T11:26:12.046Z,1.20
2019-02-28T11:27:12.048Z,1.30
2019-02-28T11:28:12.052Z,1.30
2019-02-28T11:29:12.055Z,1.40
2019-02-28T11:30:12.057Z,1.30
2019-02-28T11:31:12.119Z,1.50
2019-02-28T11:32:12.114Z,1.30
2019-02-28T11:33:12.067Z,1.20
2019-02-28T11:34:15.002Z,1.10
2019-02-28T11:35:12.076Z,1.40
2019-02-28T11:36:12.077Z,1.10
2019-02-28T11:37:12.785Z,1.10
2019-02-28T11:38:12.091Z,1.20
2019-02-28T11:39:12.192Z,1.20
2019-02-28T11:40:12.090Z,1.30
2019-02-28T11:41:12.094Z,1.20
2019-02-28T11:42:12.098Z,1.20
2019-02-28T11:43:12.101Z,1.10
2019-02-28T11:44:12.935Z,1.30
2019-02-28T11:45:12.158Z,1.00
2019-02-28T11:46:12.111Z,1.10
2019-02-28T11:47:12.115Z,1.30
2019-02-28T11:48:12.844Z,1.20
2019-02-28T11:49:13.639Z,0.90
2019-02-28T11:50:12.124Z,1.10
2019-02-28T11:51:14.617Z,1.20
2019-02-28T11:52:12.128Z,1.20
2019-02-28T11:53:12.132Z,1.00
2019-02-28T11:54:12.494Z,1.20
2019-02-28T11:55:12.141Z,1.20
2019-02-28T11:56:12.144Z,1.30
2019-02-28T11:57:12.145Z,1.30
2019-02-28T11:58:16.247Z,1.20
2019-02-28T11:59:12.154Z,1.00
2019-02-28T12:00:13.474Z,1.30
2019-02-28T12:01:12.210Z,1.10
2019-02-28T12:02:12.163Z,1.20
2019-02-28T12:03:12.219Z,1.10
2019-02-28T12:04:12.219Z,1.10
2019-02-28T12:05:15.509Z,1.10
2019-02-28T12:06:12.179Z,1.10
2019-02-28T12:07:12.181Z,1.20
2019-02-28T12:08:12.235Z,1.20
2019-02-28T12:09:12.234Z,1.00
2019-02-28T12:10:12.190Z,1.20
2019-02-28T12:11:12.245Z,1.20
2019-02-28T12:12:12.196Z,1.00
2019-02-28T12:13:12.201Z,1.20
2019-02-28T12:14:12.204Z,1.10
2019-02-28T12:15:12.262Z,1.40
2019-02-28T12:16:12.207Z,1.00
2019-02-28T12:17:12.219Z,1.20
2019-02-28T12:18:12.221Z,1.20
2019-02-28T12:19:12.571Z,1.20
2019-02-28T12:20:12.221Z,1.20
2019-02-28T12:21:12.228Z,1.00
2019-02-28T12:22:12.759Z,1.30
2019-02-28T12:23:12.234Z,1.20
2019-02-28T12:24:12.234Z,1.00
2019-02-28T12:25:12.239Z,1.10
2019-02-28T12:26:14.337Z,1.00
2019-02-28T12:27:12.244Z,1.30
2019-02-28T12:28:12.297Z,1.00
2019-02-28T12:29:12.888Z,1.20
2019-02-28T12:30:12.254Z,1.10
2019-02-28T12:31:12.358Z,1.20
2019-02-28T12:32:12.310Z,0.90
2019-02-28T12:33:12.263Z,1.20
2019-02-28T12:34:12.265Z,0.90
2019-02-28T12:35:12.320Z,1.20
2019-02-28T12:36:14.453Z,0.90
2019-02-28T12:37:12.327Z,1.20
2019-02-28T12:38:12.287Z,1.00
2019-02-28T12:39:12.281Z,1.10
2019-02-28T12:40:12.285Z,1.20
2019-02-28T12:41:12.289Z,1.00
2019-02-28T12:42:12.292Z,1.30
2019-02-28T12:43:12.315Z,0.90
2019-02-28T12:44:15.157Z,1.00
2019-02-28T12:45:12.306Z,1.10
2019-02-28T12:46:12.306Z,1.00
2019-02-28T12:47:12.378Z,1.20
2019-02-28T12:48:13.781Z,1.10
2019-02-28T12:49:12.317Z,1.00
2019-02-28T12:50:12.419Z,1.00
2019-02-28T12:51:12.374Z,0.90
2019-02-28T12:52:14.595Z,0.90
2019-02-28T12:53:12.329Z,1.20
2019-02-28T12:54:12.382Z,1.10
2019-02-28T12:55:12.383Z,1.00
2019-02-28T12:56:14.361Z,1.10
2019-02-28T12:57:12.338Z,1.30
2019-02-28T12:58:12.394Z,1.10
2019-02-28T12:59:12.447Z,1.10
2019-02-28T13:00:12.400Z,1.10
2019-02-28T13:01:12.353Z,1.00
2019-02-28T13:02:12.456Z,1.20
2019-02-28T13:03:12.366Z,1.10
2019-02-28T13:04:12.370Z,1.10
2019-02-28T13:05:14.836Z,1.10
2019-02-28T13:06:12.427Z,1.30
2019-02-28T13:07:12.424Z,1.00
2019-02-28T13:08:12.378Z,1.10
2019-02-28T13:09:13.670Z,1.10
2019-02-28T13:10:12.385Z,1.20
2019-02-28T13:11:12.390Z,1.40
2019-02-28T13:12:12.388Z,1.00
2019-02-28T13:13:12.399Z,1.00
2019-02-28T13:14:12.493Z,1.20
2019-02-28T13:15:13.014Z,1.30
2019-02-28T13:16:12.419Z,1.30
2019-02-28T13:17:12.401Z,1.00
2019-02-28T13:18:12.458Z,1.30